createdAt,value
2022-09-16T00:00:51.694Z,98812.28
2022-09-16T00:03:22.432Z,98813.16
2022-09-16T00:05:51.954Z,98818.34
2022-09-16T00:08:22.543Z,98819.19
2022-09-16T00:10:50.965Z,98812.91
2022-09-16T00:13:19.700Z,98816.00
2022-09-16T00:15:51.901Z,98812.97
2022-09-16T00:18:26.156Z,98826.44
2022-09-16T00:20:56.113Z,98829.56
2022-09-16T00:23:27.587Z,98825.34
2022-09-16T00:25:56.599Z,98829.88
2022-09-16T00:28:25.287Z,98845.59
2022-09-16T00:30:53.678Z,98843.72
2022-09-16T00:33:21.910Z,98834.25
2022-09-16T00:35:50.163Z,98829.78
2022-09-16T00:38:18.270Z,98830.19
2022-09-16T00:40:49.284Z,98837.22
2022-09-16T00:43:19.547Z,98830.53
2022-09-16T00:45:52.046Z,98836.72
2022-09-16T00:48:26.113Z,98826.41
2022-09-16T00:50:57.265Z,98823.00
2022-09-16T00:53:37.474Z,98833.19
2022-09-16T00:56:14.727Z,98828.66
2022-09-16T00:58:58.498Z,98826.34
2022-09-16T01:01:29.508Z,98832.59
2022-09-16T01:04:01.847Z,98827.44
2022-09-16T01:06:38.139Z,98823.19
2022-09-16T01:09:10.605Z,98825.78
2022-09-16T01:11:56.714Z,98828.38
2022-09-16T01:14:45.572Z,98824.69
2022-09-16T01:17:21.313Z,98823.41
2022-09-16T01:20:07.008Z,98816.13
2022-09-16T01:23:02.301Z,98827.47
2022-09-16T01:25:47.306Z,98811.94
2022-09-16T01:28:57.326Z,98804.88
2022-09-16T01:31:30.252Z,98816.41
2022-09-16T01:34:03.094Z,98815.72
2022-09-16T01:36:38.993Z,98823.72
2022-09-16T01:39:19.987Z,98818.47
2022-09-16T01:42:00.294Z,98818.06
2022-09-16T01:44:33.582Z,98819.25
2022-09-16T01:47:05.231Z,98830.75
2022-09-16T01:49:42.095Z,98825.16
2022-09-16T01:52:18.599Z,98825.50
2022-09-16T01:54:50.054Z,98821.00
2022-09-16T01:57:20.576Z,98830.53
2022-09-16T01:59:52.219Z,98823.19
2022-09-16T02:02:23.726Z,98819.78
2022-09-16T02:04:55.321Z,98807.78
2022-09-16T02:07:28.008Z,98805.34
2022-09-16T02:09:59.107Z,98799.81
2022-09-16T02:12:31.468Z,98803.03
2022-09-16T02:15:04.632Z,98800.81
2022-09-16T02:17:37.190Z,98793.16
2022-09-16T02:20:09.645Z,98806.97
2022-09-16T02:22:39.700Z,98788.78
2022-09-16T02:25:09.049Z,98795.59
2022-09-16T02:27:38.090Z,98787.19
2022-09-16T02:30:08.693Z,98789.50
2022-09-16T02:32:39.587Z,98787.59
2022-09-16T02:35:10.083Z,98790.59
2022-09-16T02:37:42.177Z,98780.50
2022-09-16T02:40:13.833Z,98791.34
2022-09-16T02:42:42.049Z,98788.84
2022-09-16T02:45:11.071Z,98790.03
2022-09-16T02:47:48.358Z,98790.56
2022-09-16T02:50:19.332Z,98791.31
2022-09-16T02:52:51.120Z,98788.53
2022-09-16T02:55:24.807Z,98797.00
2022-09-16T02:57:52.994Z,98785.75
2022-09-16T03:00:21.152Z,98793.91
2022-09-16T03:02:50.738Z,98794.78
2022-09-16T03:05:18.929Z,98800.00
2022-09-16T03:07:47.045Z,98812.50
2022-09-16T03:10:15.454Z,98814.84
2022-09-16T03:12:52.223Z,98806.84
2022-09-16T03:15:29.932Z,98805.00
2022-09-16T03:18:10.363Z,98814.47
2022-09-16T03:20:43.179Z,98821.69
2022-09-16T03:23:18.326Z,98818.78
2022-09-16T03:25:52.526Z,98826.66
2022-09-16T03:28:24.246Z,98823.13
2022-09-16T03:30:59.637Z,98823.13
2022-09-16T03:33:34.757Z,98825.69
2022-09-16T03:36:06.392Z,98826.53
2022-09-16T03:38:35.629Z,98830.34
2022-09-16T03:41:04.987Z,98826.81
2022-09-16T03:43:33.212Z,98829.50
2022-09-16T03:46:01.405Z,98835.75
2022-09-16T03:48:30.887Z,98833.63
2022-09-16T03:50:58.971Z,98826.59
2022-09-16T03:53:27.172Z,98827.91
2022-09-16T03:55:55.305Z,98823.47
2022-09-16T03:58:23.380Z,98812.22
2022-09-16T04:00:51.973Z,98807.97
2022-09-16T04:03:20.078Z,98814.53
2022-09-16T04:05:53.776Z,98815.84
2022-09-16T04:08:22.013Z,98816.22
2022-09-16T04:10:55.453Z,98821.41
2022-09-16T04:13:24.146Z,98821.81
2022-09-16T04:15:52.731Z,98837.97
2022-09-16T04:18:20.920Z,98831.91
2022-09-16T04:20:50.574Z,98839.69
2022-09-16T04:23:18.779Z,98834.69
2022-09-16T04:25:55.315Z,98825.22
2022-09-16T04:28:23.534Z,98824.41
2022-09-16T04:30:52.076Z,98823.72
2022-09-16T04:33:20.301Z,98829.41
2022-09-16T04:35:48.509Z,98823.66
2022-09-16T04:38:17.894Z,98818.31
2022-09-16T04:40:46.015Z,98815.25
2022-09-16T04:43:15.155Z,98812.50
2022-09-16T04:45:43.532Z,98811.19
2022-09-16T04:48:11.689Z,98814.31
2022-09-16T04:50:39.757Z,98807.47
2022-09-16T04:53:07.825Z,98804.63
2022-09-16T04:55:37.530Z,98789.69
2022-09-16T04:58:05.866Z,98784.59
2022-09-16T05:00:34.014Z,98787.66
2022-09-16T05:03:02.288Z,98778.69
2022-09-16T05:05:30.501Z,98780.28
2022-09-16T05:07:58.674Z,98784.00
2022-09-16T05:10:28.749Z,98781.44
2022-09-16T05:12:58.269Z,98777.41
2022-09-16T05:15:26.603Z,98776.50
2022-09-16T05:17:55.117Z,98783.03
2022-09-16T05:20:23.881Z,98786.72
2022-09-16T05:22:52.336Z,98788.03
2022-09-16T05:25:20.414Z,98792.28
2022-09-16T05:27:50.776Z,98800.56
2022-09-16T05:30:25.776Z,98790.66
2022-09-16T05:32:55.373Z,98798.94
2022-09-16T05:35:23.511Z,98794.16
2022-09-16T05:37:51.741Z,98798.16
2022-09-16T05:40:23.175Z,98798.00
2022-09-16T05:42:51.374Z,98795.47
2022-09-16T05:45:25.669Z,98795.47
2022-09-16T05:47:56.012Z,98793.16
2022-09-16T05:50:24.278Z,98789.47
2022-09-16T05:52:52.469Z,98782.00
2022-09-16T05:55:20.544Z,98775.44
2022-09-16T05:57:48.843Z,98768.16
2022-09-16T06:00:17.592Z,98774.66
2022-09-16T06:02:49.234Z,98764.97
2022-09-16T06:05:17.796Z,98767.84
2022-09-16T06:07:45.854Z,98777.00
2022-09-16T06:10:14.167Z,98782.38
2022-09-16T06:12:42.398Z,98768.84
2022-09-16T06:15:11.375Z,98762.22
2022-09-16T06:17:39.547Z,98754.38
2022-09-16T06:20:14.167Z,98775.31
2022-09-16T06:22:42.548Z,98785.66
2022-09-16T06:25:10.706Z,98795.56
2022-09-16T06:27:38.967Z,98799.13
2022-09-16T06:30:10.725Z,98804.53
2022-09-16T06:32:38.892Z,98809.91
2022-09-16T06:35:10.397Z,98807.94
2022-09-16T06:37:38.629Z,98803.88
2022-09-16T06:40:08.242Z,98803.94
2022-09-16T06:42:36.803Z,98803.69
2022-09-16T06:45:05.674Z,98807.03
2022-09-16T06:47:34.337Z,98817.88
2022-09-16T06:50:03.122Z,98819.56
2022-09-16T06:52:33.097Z,98809.41
2022-09-16T06:55:01.412Z,98812.31
2022-09-16T06:57:29.613Z,98811.47
2022-09-16T06:59:57.766Z,98814.19
2022-09-16T07:02:26.767Z,98807.88
2022-09-16T07:04:55.304Z,98803.41
2022-09-16T07:07:23.501Z,98810.81
2022-09-16T07:09:53.024Z,98804.84
2022-09-16T07:12:21.156Z,98800.84
2022-09-16T07:14:49.271Z,98810.44
2022-09-16T07:17:17.522Z,98818.94
2022-09-16T07:19:45.657Z,98814.78
2022-09-16T07:22:13.932Z,98815.47
2022-09-16T07:24:42.079Z,98828.94
2022-09-16T07:27:11.631Z,98828.28
2022-09-16T07:29:39.706Z,98818.97
2022-09-16T07:32:08.662Z,98815.88
2022-09-16T07:34:36.790Z,98813.78
2022-09-16T07:37:05.010Z,98818.34
2022-09-16T07:39:33.183Z,98816.09
2022-09-16T07:42:05.838Z,98809.63
2022-09-16T07:44:35.790Z,98807.59
2022-09-16T07:47:04.016Z,98812.97
2022-09-16T07:49:32.124Z,98808.63
2022-09-16T07:52:00.410Z,98819.44
2022-09-16T07:54:28.785Z,98819.19
2022-09-16T07:56:56.975Z,98818.16
2022-09-16T07:59:25.205Z,98823.34
2022-09-16T08:01:54.856Z,98834.78
2022-09-16T08:04:23.056Z,98835.78
2022-09-16T08:06:51.213Z,98840.56
2022-09-16T08:09:38.787Z,98840.94
2022-09-16T08:12:11.165Z,98848.00
2022-09-16T08:14:39.685Z,98860.19
2022-09-16T08:17:09.324Z,98848.44
2022-09-16T08:19:39.276Z,98843.22
2022-09-16T08:22:07.367Z,98847.22
2022-09-16T08:24:35.815Z,98849.41
2022-09-16T08:27:03.984Z,98840.25
2022-09-16T08:29:32.200Z,98833.09
2022-09-16T08:32:00.386Z,98832.06
2022-09-16T08:34:29.880Z,98826.25
2022-09-16T08:36:58.101Z,98833.09
2022-09-16T08:39:26.360Z,98839.56
2022-09-16T08:42:06.747Z,98836.78
2022-09-16T08:44:41.384Z,98825.84
2022-09-16T08:47:14.605Z,98820.25
2022-09-16T08:49:46.731Z,98811.09
2022-09-16T08:52:26.439Z,98803.00
2022-09-16T08:54:57.816Z,98828.53
2022-09-16T08:57:28.973Z,98842.88
2022-09-16T09:00:00.178Z,98841.19
2022-09-16T09:05:30.364Z,98841.03
2022-09-16T09:08:13.057Z,98842.06
2022-09-16T09:10:44.683Z,98848.50
2022-09-16T09:13:29.795Z,98840.81
2022-09-16T09:16:01.277Z,98844.94
2022-09-16T09:18:38.919Z,98843.28
2022-09-16T09:21:20.506Z,98835.94
2022-09-16T09:24:33.057Z,98833.22
2022-09-16T09:27:07.360Z,98838.19
2022-09-16T09:29:45.166Z,98831.56
2022-09-16T09:32:21.419Z,98824.94
2022-09-16T09:35:03.706Z,98823.50
2022-09-16T09:37:45.434Z,98825.28
2022-09-16T09:40:17.532Z,98817.47
2022-09-16T09:42:49.661Z,98816.34
2022-09-16T09:45:25.439Z,98815.69
2022-09-16T09:48:00.300Z,98816.59
2022-09-16T09:50:32.307Z,98809.41
2022-09-16T09:53:12.422Z,98813.91
2022-09-16T09:55:43.581Z,98818.06
2022-09-16T09:58:25.155Z,98821.44
2022-09-16T10:01:00.833Z,98823.91
2022-09-16T10:03:33.314Z,98832.31
2022-09-16T10:06:05.267Z,98815.50
2022-09-16T10:08:39.430Z,98816.94
2022-09-16T10:11:18.353Z,98810.72
2022-09-16T10:13:52.712Z,98812.09
2022-09-16T10:16:26.345Z,98824.88
2022-09-16T10:18:59.301Z,98812.31
2022-09-16T10:21:39.884Z,98813.69
2022-09-16T10:24:28.852Z,98808.41
2022-09-16T10:26:57.168Z,98806.38
2022-09-16T10:29:26.050Z,98808.09
2022-09-16T10:31:54.635Z,98804.88
2022-09-16T10:34:29.751Z,98810.06
2022-09-16T10:37:03.307Z,98805.25
2022-09-16T10:39:34.398Z,98813.19
2022-09-16T10:42:04.014Z,98817.91
2022-09-16T10:44:34.434Z,98817.56
2022-09-16T10:47:05.661Z,98814.41
2022-09-16T10:49:40.105Z,98811.91
2022-09-16T10:52:10.349Z,98794.06
2022-09-16T10:54:41.410Z,98807.16
2022-09-16T10:57:22.493Z,98789.06
2022-09-16T10:59:58.438Z,98794.28
2022-09-16T11:02:40.965Z,98789.84
2022-09-16T11:05:14.557Z,98788.25
2022-09-16T11:07:46.534Z,98783.09
2022-09-16T11:10:24.218Z,98782.63
2022-09-16T11:13:12.782Z,98790.34
2022-09-16T11:15:54.207Z,98791.75
2022-09-16T11:18:35.185Z,98778.91
2022-09-16T11:21:17.919Z,98779.50
2022-09-16T11:23:57.963Z,98781.59
2022-09-16T11:26:32.614Z,98787.84
2022-09-16T11:29:15.332Z,98779.94
2022-09-16T11:31:50.584Z,98770.13
2022-09-16T11:34:31.317Z,98774.78
2022-09-16T11:37:08.083Z,98774.69
2022-09-16T11:39:58.313Z,98772.63
2022-09-16T11:42:36.411Z,98769.31
2022-09-16T11:45:19.599Z,98758.13
2022-09-16T11:47:58.770Z,98751.72
2022-09-16T11:50:36.892Z,98750.59
2022-09-16T11:53:24.797Z,98732.97
2022-09-16T11:55:58.860Z,98727.59
2022-09-16T11:58:44.346Z,98725.50
2022-09-16T12:01:23.103Z,98728.78
2022-09-16T12:03:56.541Z,98739.31
2022-09-16T12:06:26.378Z,98752.66
2022-09-16T12:09:00.765Z,98748.53
2022-09-16T12:11:33.310Z,98745.50
2022-09-16T12:14:09.772Z,98737.66
2022-09-16T12:16:42.003Z,98741.41
2022-09-16T12:19:14.682Z,98734.53
2022-09-16T12:21:48.268Z,98734.06
2022-09-16T12:24:21.660Z,98725.59
2022-09-16T12:26:55.846Z,98727.22
2022-09-16T12:29:29.569Z,98743.53
2022-09-16T12:32:02.787Z,98717.16
2022-09-16T12:34:34.222Z,98718.84
2022-09-16T12:37:07.913Z,98702.81
2022-09-16T12:39:36.354Z,98706.06
2022-09-16T12:42:31.376Z,98701.88
2022-09-16T12:45:17.215Z,98709.69
2022-09-16T12:48:05.558Z,98704.59
2022-09-16T12:50:49.609Z,98702.38
2022-09-16T12:53:52.541Z,98703.25
2022-09-16T12:56:43.686Z,98695.13
2022-09-16T12:59:32.790Z,98688.44
2022-09-16T13:02:07.054Z,98703.66
2022-09-16T13:04:39.929Z,98682.38
2022-09-16T13:07:08.400Z,98678.56
2022-09-16T13:09:38.958Z,98677.06
2022-09-16T13:14:59.140Z,98678.84
2022-09-16T13:17:33.326Z,98680.56
2022-09-16T13:20:08.796Z,98686.31
2022-09-16T13:22:39.705Z,98689.16
2022-09-16T13:25:13.432Z,98674.19
2022-09-16T13:27:42.496Z,98675.47
2022-09-16T13:30:31.694Z,98678.03
2022-09-16T13:33:03.822Z,98686.84
2022-09-16T13:35:40.952Z,98679.81
2022-09-16T13:38:38.773Z,98688.50
2022-09-16T13:41:07.503Z,98686.47
2022-09-16T13:43:37.889Z,98674.94
2022-09-16T13:46:08.766Z,98673.31
2022-09-16T13:48:42.097Z,98664.13
2022-09-16T13:51:17.471Z,98667.59
2022-09-16T13:53:47.751Z,98660.56
2022-09-16T13:56:42.951Z,98653.88
2022-09-16T13:59:23.505Z,98648.31
2022-09-16T14:02:00.300Z,98647.97
2022-09-16T14:04:42.430Z,98651.13
2022-09-16T14:07:23.088Z,98649.97
2022-09-16T14:09:55.876Z,98657.75
2022-09-16T14:12:29.101Z,98660.81
2022-09-16T14:14:58.952Z,98658.00
2022-09-16T14:17:28.819Z,98660.63
2022-09-16T14:20:00.474Z,98666.09
2022-09-16T14:22:30.223Z,98662.16
2022-09-16T14:25:06.795Z,98661.69
2022-09-16T14:27:41.237Z,98654.16
2022-09-16T14:30:16.926Z,98653.28
2022-09-16T14:32:45.265Z,98652.44
2022-09-16T14:35:18.841Z,98649.81
2022-09-16T14:37:49.191Z,98646.31
2022-09-16T14:40:20.307Z,98645.09
2022-09-16T14:42:50.619Z,98659.59
2022-09-16T14:45:19.271Z,98654.09
2022-09-16T14:47:51.704Z,98646.44
2022-09-16T14:50:24.325Z,98652.41
2022-09-16T14:52:57.574Z,98648.88
2022-09-16T14:55:30.203Z,98634.72
2022-09-16T14:57:59.067Z,98630.88
2022-09-16T15:00:29.595Z,98633.94
2022-09-16T15:03:01.621Z,98632.25
2022-09-16T15:05:34.854Z,98627.69
2022-09-16T15:08:14.119Z,98627.34
2022-09-16T15:10:53.963Z,98618.50
2022-09-16T15:13:24.466Z,98621.28
2022-09-16T15:15:56.042Z,98601.47
2022-09-16T15:18:28.632Z,98598.09
2022-09-16T15:21:06.944Z,98601.44
2022-09-16T15:23:36.086Z,98597.00
2022-09-16T15:26:16.774Z,98594.81
2022-09-16T15:28:53.652Z,98597.16
2022-09-16T15:31:34.940Z,98593.56
2022-09-16T15:34:05.803Z,98595.81
2022-09-16T15:36:38.204Z,98600.19
2022-09-16T15:39:07.614Z,98596.50
2022-09-16T15:41:35.696Z,98601.59
2022-09-16T15:44:10.042Z,98593.50
2022-09-16T15:46:38.539Z,98590.78
2022-09-16T15:49:14.693Z,98594.81
2022-09-16T15:51:48.735Z,98592.13
2022-09-16T15:54:19.625Z,98591.53
2022-09-16T15:56:58.027Z,98605.97
2022-09-16T15:59:29.411Z,98607.75
2022-09-16T16:01:58.490Z,98613.53
2022-09-16T16:04:29.131Z,98607.59
2022-09-16T16:06:59.887Z,98604.88
2022-09-16T16:09:42.661Z,98603.47
2022-09-16T16:12:13.119Z,98609.94
2022-09-16T16:14:42.036Z,98604.28
2022-09-16T16:17:14.114Z,98603.22
2022-09-16T16:19:43.368Z,98595.16
2022-09-16T16:22:14.006Z,98597.59
2022-09-16T16:24:42.483Z,98609.84
2022-09-16T16:27:11.099Z,98605.59
2022-09-16T16:29:39.454Z,98595.38
2022-09-16T16:32:09.781Z,98596.50
2022-09-16T16:34:39.367Z,98602.97
2022-09-16T16:37:08.513Z,98602.97
2022-09-16T16:39:38.050Z,98589.25
2022-09-16T16:42:06.904Z,98589.81
2022-09-16T16:44:35.260Z,98597.31
2022-09-16T16:47:03.389Z,98596.75
2022-09-16T16:49:31.464Z,98605.28
2022-09-16T16:51:59.550Z,98609.16
2022-09-16T16:54:28.578Z,98601.63
2022-09-16T16:56:58.347Z,98610.91
2022-09-16T16:59:26.853Z,98610.75
2022-09-16T17:01:56.462Z,98614.56
2022-09-16T17:04:25.728Z,98617.88
2022-09-16T17:07:14.537Z,98611.63
2022-09-16T17:09:42.239Z,98613.91
2022-09-16T17:12:13.039Z,98621.94
2022-09-16T17:14:42.213Z,98628.94
2022-09-16T17:17:10.330Z,98624.19
2022-09-16T17:19:38.411Z,98634.16
2022-09-16T17:22:06.571Z,98622.13
2022-09-16T17:24:34.953Z,98633.53
2022-09-16T17:27:03.741Z,98628.41
2022-09-16T17:29:33.276Z,98643.16
2022-09-16T17:32:03.347Z,98644.75
2022-09-16T17:34:31.960Z,98642.31
2022-09-16T17:37:00.206Z,98647.44
2022-09-16T17:39:28.443Z,98644.16
2022-09-16T17:41:57.549Z,98654.78
2022-09-16T17:44:25.802Z,98662.72
2022-09-16T17:46:55.443Z,98668.53
2022-09-16T17:49:25.011Z,98674.56
2022-09-16T17:51:54.406Z,98674.16
2022-09-16T17:54:23.105Z,98674.34
2022-09-16T17:56:51.460Z,98676.00
2022-09-16T17:59:20.199Z,98684.31
2022-09-16T18:01:49.245Z,98695.44
2022-09-16T18:04:18.682Z,98691.56
2022-09-16T18:06:47.895Z,98696.91
2022-09-16T18:09:17.393Z,98696.69
2022-09-16T18:11:46.289Z,98694.41
2022-09-16T18:14:14.994Z,98695.38
2022-09-16T18:16:43.722Z,98680.28
2022-09-16T18:19:12.211Z,98667.66
2022-09-16T18:21:41.658Z,98673.44
2022-09-16T18:24:12.807Z,98677.00
2022-09-16T18:26:42.173Z,98677.53
2022-09-16T18:29:12.058Z,98680.50
2022-09-16T18:31:41.492Z,98684.38
2022-09-16T18:34:09.950Z,98695.19
2022-09-16T18:36:39.416Z,98693.56
2022-09-16T18:39:13.024Z,98682.94
2022-09-16T18:41:42.561Z,98683.78
2022-09-16T18:44:13.732Z,98701.19
2022-09-16T18:46:42.169Z,98694.50
2022-09-16T18:49:12.538Z,98704.00
2022-09-16T18:51:41.871Z,98713.88
2022-09-16T18:54:13.196Z,98718.78
2022-09-16T18:56:42.259Z,98718.50
2022-09-16T18:59:23.878Z,98729.56
2022-09-16T19:01:53.671Z,98731.84
2022-09-16T19:04:23.842Z,98728.88
2022-09-16T19:06:53.869Z,98743.66
2022-09-16T19:09:24.740Z,98754.72
2022-09-16T19:11:55.063Z,98762.94
2022-09-16T19:14:24.989Z,98754.22
2022-09-16T19:16:53.445Z,98758.25
2022-09-16T19:19:22.735Z,98762.69
2022-09-16T19:21:51.018Z,98780.69
2022-09-16T19:24:20.857Z,98780.22
2022-09-16T19:26:52.000Z,98773.78
2022-09-16T19:29:21.029Z,98800.28
2022-09-16T19:31:51.997Z,98782.50
2022-09-16T19:34:20.899Z,98759.19
2022-09-16T19:36:49.127Z,98772.81
2022-09-16T19:39:17.319Z,98784.53
2022-09-16T19:41:45.738Z,98779.91
2022-09-16T19:44:17.112Z,98796.31
2022-09-16T19:46:47.094Z,98797.28
2022-09-16T19:49:17.370Z,98804.06
2022-09-16T19:51:45.627Z,98803.66
2022-09-16T19:54:13.823Z,98808.28
2022-09-16T19:56:44.223Z,98813.16
2022-09-16T19:59:16.820Z,98817.31
2022-09-16T20:01:45.187Z,98820.13
2022-09-16T20:04:13.464Z,98815.00
2022-09-16T20:06:43.177Z,98818.72
2022-09-16T20:09:13.053Z,98823.91
2022-09-16T20:11:43.223Z,98817.06
2022-09-16T20:14:15.536Z,98809.84
2022-09-16T20:16:45.189Z,98810.41
2022-09-16T20:19:18.125Z,98820.47
2022-09-16T20:21:46.386Z,98817.03
2022-09-16T20:24:16.296Z,98829.94
2022-09-16T20:26:44.545Z,98825.13
2022-09-16T20:29:12.718Z,98823.34
2022-09-16T20:31:40.928Z,98835.47
2022-09-16T20:34:12.189Z,98850.47
2022-09-16T20:36:40.864Z,98827.63
2022-09-16T20:39:10.029Z,98842.63
2022-09-16T20:41:39.902Z,98826.41
2022-09-16T20:44:08.571Z,98833.00
2022-09-16T20:46:38.798Z,98834.81
2022-09-16T20:49:10.575Z,98836.50
2022-09-16T20:51:40.158Z,98831.31
2022-09-16T20:54:10.573Z,98828.03
2022-09-16T20:56:39.921Z,98829.56
2022-09-16T20:59:09.179Z,98843.19
2022-09-16T21:01:38.232Z,98842.31
2022-09-16T21:04:08.062Z,98841.69
2022-09-16T21:06:37.288Z,98834.00
2022-09-16T21:09:10.750Z,98821.69
2022-09-16T21:11:40.917Z,98841.69
2022-09-16T21:14:09.081Z,98822.72
2022-09-16T21:16:38.930Z,98819.94
2022-09-16T21:19:09.909Z,98818.34
2022-09-16T21:21:39.865Z,98835.75
2022-09-16T21:24:09.939Z,98829.19
2022-09-16T21:26:40.294Z,98814.94
2022-09-16T21:29:11.474Z,98823.28
2022-09-16T21:31:40.808Z,98823.53
2022-09-16T21:34:13.110Z,98829.56
2022-09-16T21:36:41.652Z,98830.50
2022-09-16T21:39:11.942Z,98820.59
2022-09-16T21:41:39.962Z,98818.72
2022-09-16T21:44:08.452Z,98832.44
2022-09-16T21:46:41.497Z,98844.75
2022-09-16T21:49:19.333Z,98842.78
2022-09-16T21:51:47.475Z,98839.09
2022-09-16T21:54:20.118Z,98849.75
2022-09-16T21:56:49.530Z,98860.00
2022-09-16T21:59:19.866Z,98872.13
2022-09-16T22:01:49.649Z,98848.16
2022-09-16T22:04:19.788Z,98843.91
2022-09-16T22:06:48.801Z,98822.44
2022-09-16T22:09:18.566Z,98826.69
2022-09-16T22:11:46.718Z,98830.38
2022-09-16T22:14:14.797Z,98817.16
2022-09-16T22:16:42.966Z,98821.59
2022-09-16T22:19:13.006Z,98834.09
2022-09-16T22:21:42.743Z,98827.06
2022-09-16T22:24:11.500Z,98813.34
2022-09-16T22:26:41.432Z,98808.44
2022-09-16T22:29:09.991Z,98809.31
2022-09-16T22:31:39.265Z,98809.56
2022-09-16T22:34:07.596Z,98809.31
2022-09-16T22:36:37.091Z,98815.47
2022-09-16T22:39:06.956Z,98814.75
2022-09-16T22:41:35.272Z,98822.91
2022-09-16T22:44:05.198Z,98804.94
2022-09-16T22:46:35.697Z,98801.06
2022-09-16T22:49:04.039Z,98799.94
2022-09-16T22:51:32.503Z,98805.03
2022-09-16T22:54:00.652Z,98806.50
2022-09-16T22:56:32.173Z,98811.22
2022-09-16T22:59:02.368Z,98804.88
2022-09-16T23:01:33.941Z,98797.19
2022-09-16T23:04:03.618Z,98798.00
2022-09-16T23:06:33.119Z,98805.75
2022-09-16T23:09:01.799Z,98803.19
2022-09-16T23:11:31.074Z,98794.88
2022-09-16T23:14:00.332Z,98791.72
2022-09-16T23:16:32.976Z,98793.03
2022-09-16T23:19:03.175Z,98785.22
2022-09-16T23:21:31.988Z,98785.72
2022-09-16T23:24:01.985Z,98781.50
2022-09-16T23:26:31.641Z,98792.44
2022-09-16T23:29:01.341Z,98788.22
2022-09-16T23:31:30.580Z,98789.75
2022-09-16T23:34:00.733Z,98790.22
2022-09-16T23:36:29.845Z,98790.91
2022-09-16T23:39:00.578Z,98778.03
2022-09-16T23:41:29.217Z,98767.19
2022-09-16T23:43:57.783Z,98765.63
2022-09-16T23:46:27.297Z,98754.13
2022-09-16T23:48:55.371Z,98750.81
2022-09-16T23:51:28.417Z,98759.06
2022-09-16T23:53:57.738Z,98742.03
2022-09-16T23:56:26.550Z,98748.78
2022-09-16T23:58:55.531Z,98744.25
